Time;durP1;ratioP1;P1;durP2;ratioP2;P2;SDS_P1;SDS_P2;PMS_P1;PMS_P2;Temp;Humidity;BMP_temperature;BMP_pressure;BME280_temperature;BME280_humidity;BME280_pressure;Samples;Min_cycle;Max_cycle;Signal;HPM_P1;HPM_P2
2021/06/24 00:01:57;;;;;;;3.08;2.33;;;24.80;41.70;;;;;;5024575;28;20290;-50
2021/06/24 00:04:23;;;;;;;3.20;2.25;;;24.80;41.70;;;;;;5017631;28;20034;-54
2021/06/24 00:06:49;;;;;;;3.53;2.20;;;24.80;41.70;;;;;;5024756;28;20036;-51
2021/06/24 00:09:15;;;;;;;2.53;1.77;;;24.80;41.70;;;;;;5023684;28;20030;-52
2021/06/24 00:11:41;;;;;;;2.55;1.63;;;24.80;41.70;;;;;;5025328;28;20461;-52
2021/06/24 00:14:07;;;;;;;3.00;1.92;;;24.80;41.70;;;;;;5023332;28;20033;-56
2021/06/24 00:16:33;;;;;;;2.92;1.60;;;24.80;41.70;;;;;;5020938;28;20036;-53
2021/06/24 00:18:59;;;;;;;3.47;1.90;;;24.80;41.60;;;;;;5022591;28;20022;-53
2021/06/24 00:21:25;;;;;;;2.33;1.60;;;24.80;41.60;;;;;;5021928;28;20418;-49
2021/06/24 00:23:51;;;;;;;2.63;1.70;;;24.80;41.60;;;;;;5025494;28;20050;-49
2021/06/24 00:26:16;;;;;;;2.60;1.33;;;24.80;41.60;;;;;;5022703;28;20030;-49
2021/06/24 00:28:42;;;;;;;2.60;1.40;;;24.70;41.50;;;;;;5022738;28;20338;-51
2021/06/24 00:31:08;;;;;;;2.67;1.60;;;24.80;41.60;;;;;;5023785;28;20029;-55
2021/06/24 00:33:34;;;;;;;2.65;1.50;;;24.70;41.50;;;;;;5023637;28;20041;-50
2021/06/24 00:36:00;;;;;;;2.78;1.50;;;24.70;41.50;;;;;;5023171;28;20112;-50
2021/06/24 00:38:26;;;;;;;2.17;1.40;;;24.70;41.50;;;;;;5021554;28;20315;-52
2021/06/24 00:40:52;;;;;;;2.67;1.48;;;24.70;41.50;;;;;;5022869;28;20084;-53
2021/06/24 00:43:22;;;;;;;2.28;1.48;;;24.70;41.50;;;;;;5021012;28;20029;-49
2021/06/24 00:45:48;;;;;;;1.83;1.20;;;24.70;41.50;;;;;;5023916;28;20029;-49
2021/06/24 00:48:14;;;;;;;2.42;1.30;;;24.70;41.50;;;;;;5019219;28;20056;-49
2021/06/24 00:50:43;;;;;;;2.00;1.23;;;24.70;41.50;;;;;;5019410;28;20124;-49
2021/06/24 00:53:10;;;;;;;2.22;1.15;;;24.70;41.50;;;;;;5020078;28;20022;-49
2021/06/24 00:55:46;;;;;;;1.45;1.20;;;24.60;41.40;;;;;;5021214;28;20095;-48
2021/06/24 00:58:14;;;;;;;1.67;1.40;;;24.60;41.40;;;;;;5017938;28;20027;-52
2021/06/24 01:00:45;;;;;;;2.05;1.05;;;24.60;41.40;;;;;;5020134;28;20105;-47
2021/06/24 01:03:13;;;;;;;1.38;0.93;;;24.60;41.40;;;;;;5020969;28;20033;-51
2021/06/24 01:05:40;;;;;;;1.77;0.95;;;24.60;41.40;;;;;;5019351;28;20021;-49
2021/06/24 01:08:07;;;;;;;2.15;0.93;;;24.60;41.40;;;;;;5019089;28;20069;-52
2021/06/24 01:10:35;;;;;;;1.40;0.90;;;24.60;41.40;;;;;;5020735;28;20046;-47
2021/06/24 01:13:02;;;;;;;1.92;1.00;;;24.60;41.40;;;;;;5025195;28;20326;-49
2021/06/24 01:15:28;;;;;;;2.70;1.10;;;24.60;41.40;;;;;;5021602;28;20354;-51
2021/06/24 01:17:58;;;;;;;1.25;0.90;;;24.60;41.40;;;;;;5021472;28;20029;-50
2021/06/24 01:20:27;;;;;;;1.35;0.85;;;24.60;41.40;;;;;;5019103;28;20396;-52
2021/06/24 01:22:54;;;;;;;2.13;0.93;;;24.60;41.40;;;;;;5022305;28;20040;-51
2021/06/24 01:25:21;;;;;;;1.95;1.00;;;24.60;41.40;;;;;;5020572;28;20026;-50
2021/06/24 01:27:47;;;;;;;2.00;0.90;;;24.60;41.40;;;;;;5019604;28;20077;-50
2021/06/24 01:30:14;;;;;;;1.15;0.95;;;24.60;41.40;;;;;;5024726;28;20151;-50
2021/06/24 01:32:48;;;;;;;1.40;0.90;;;24.60;41.40;;;;;;5020332;28;20360;-50
2021/06/24 01:35:14;;;;;;;0.98;0.75;;;24.60;41.40;;;;;;5018989;28;20018;-50
2021/06/24 01:37:40;;;;;;;1.10;0.80;;;24.50;41.40;;;;;;5022079;28;20343;-51
2021/06/24 01:40:06;;;;;;;1.13;0.90;;;24.50;41.40;;;;;;5024183;28;20026;-46
2021/06/24 01:42:32;;;;;;;1.17;0.88;;;24.50;41.30;;;;;;5027920;28;20105;-55
2021/06/24 01:44:58;;;;;;;2.00;0.80;;;24.50;41.40;;;;;;5021446;28;20121;-54
2021/06/24 01:47:24;;;;;;;1.23;0.88;;;24.50;41.40;;;;;;5028351;28;20048;-53
2021/06/24 01:49:50;;;;;;;1.33;0.70;;;24.50;41.40;;;;;;5024841;28;20076;-51
2021/06/24 01:52:19;;;;;;;1.77;0.90;;;24.50;41.40;;;;;;5023426;28;20043;-53
2021/06/24 01:54:46;;;;;;;1.25;0.80;;;24.50;41.40;;;;;;5028980;28;20044;-52
2021/06/24 01:57:15;;;;;;;1.30;0.63;;;24.50;41.40;;;;;;5023778;28;20036;-53
2021/06/24 01:59:42;;;;;;;2.13;0.80;;;24.50;41.40;;;;;;5026687;28;20392;-51
2021/06/24 02:02:12;;;;;;;2.55;0.90;;;24.50;41.40;;;;;;5022280;28;20022;-55
2021/06/24 02:04:50;;;;;;;1.15;0.68;;;24.50;41.40;;;;;;5023575;28;20065;-55
2021/06/24 02:07:26;;;;;;;2.58;0.90;;;24.40;41.40;;;;;;5021216;28;20114;-53
2021/06/24 02:10:15;;;;;;;1.38;0.80;;;24.50;41.40;;;;;;5023050;28;20050;-53
2021/06/24 02:12:52;;;;;;;1.13;0.77;;;24.40;41.40;;;;;;5024954;28;20057;-51
2021/06/24 02:15:18;;;;;;;1.30;0.80;;;24.40;41.40;;;;;;5027106;28;20025;-52
2021/06/24 02:17:46;;;;;;;1.30;0.98;;;24.40;41.40;;;;;;5037980;28;20038;-50
2021/06/24 02:20:16;;;;;;;1.40;0.70;;;24.40;42.00;;;;;;5023521;28;20071;-55
2021/06/24 02:22:52;;;;;;;1.48;0.85;;;24.40;41.40;;;;;;5022849;28;20116;-49
2021/06/24 02:25:23;;;;;;;1.90;0.90;;;24.40;41.40;;;;;;5020247;28;20029;-53
2021/06/24 02:28:09;;;;;;;1.38;0.70;;;24.40;41.40;;;;;;5022738;28;20084;-50
2021/06/24 02:30:41;;;;;;;1.17;0.75;;;24.40;41.50;;;;;;5025209;28;20125;-52
2021/06/24 02:33:09;;;;;;;1.35;0.63;;;24.40;41.50;;;;;;5025249;28;20353;-51
2021/06/24 02:35:39;;;;;;;0.82;0.73;;;24.40;41.50;;;;;;5022871;28;20022;-48
2021/06/24 02:38:09;;;;;;;0.85;0.60;;;24.40;41.50;;;;;;5022042;28;20030;-51
2021/06/24 02:40:40;;;;;;;1.00;0.70;;;24.40;41.50;;;;;;5023266;28;20047;-51
2021/06/24 02:43:06;;;;;;;1.00;0.60;;;24.40;41.50;;;;;;5027306;28;20018;-51
2021/06/24 02:45:40;;;;;;;1.00;0.57;;;24.40;41.50;;;;;;5022174;28;20026;-53
2021/06/24 02:48:08;;;;;;;1.33;0.60;;;24.30;41.40;;;;;;5028410;28;20480;-50
2021/06/24 02:50:35;;;;;;;1.27;0.70;;;24.40;41.50;;;;;;5027265;28;20041;-50
2021/06/24 02:53:10;;;;;;;1.60;0.70;;;24.30;41.40;;;;;;5024713;28;20433;-51
2021/06/24 02:55:37;;;;;;;1.30;0.60;;;24.30;41.50;;;;;;5025984;28;20048;-52
2021/06/24 02:58:05;;;;;;;0.93;0.77;;;24.30;41.40;;;;;;5023529;28;20358;-50
2021/06/24 03:00:49;;;;;;;;;;;24.30;41.50;;;;;;5022802;28;20108;-53
2021/06/24 03:03:37;;;;;;;1.33;0.77;;;24.30;41.50;;;;;;5038721;28;20329;-49
2021/06/24 03:06:09;;;;;;;2.15;0.60;;;24.30;41.50;;;;;;5022547;28;20117;-51
2021/06/24 03:08:35;;;;;;;1.40;0.73;;;24.30;42.10;;;;;;5024940;28;20065;-50
2021/06/24 03:11:02;;;;;;;0.75;0.60;;;24.30;41.50;;;;;;5020862;28;20045;-54
2021/06/24 03:13:31;;;;;;;0.80;0.50;;;24.30;41.50;;;;;;5018778;28;20038;-51
2021/06/24 03:15:59;;;;;;;0.93;0.57;;;24.20;41.50;;;;;;5024473;28;20038;-56
2021/06/24 03:18:26;;;;;;;1.27;0.75;;;24.30;41.50;;;;;;5023005;28;20064;-51
2021/06/24 03:20:52;;;;;;;1.23;0.70;;;24.30;41.50;;;;;;5024997;28;20069;-48
2021/06/24 03:23:19;;;;;;;0.93;0.60;;;24.30;41.50;;;;;;5024154;28;20061;-51
2021/06/24 03:25:44;;;;;;;1.27;0.75;;;24.30;41.50;;;;;;5025239;28;20029;-53
2021/06/24 03:28:12;;;;;;;0.80;0.68;;;24.30;41.50;;;;;;5025622;28;20072;-53
2021/06/24 03:30:45;;;;;;;1.05;0.50;;;24.30;41.50;;;;;;5020387;28;20398;-49
2021/06/24 03:33:12;;;;;;;0.88;0.50;;;24.20;41.50;;;;;;5022844;28;20052;-49
2021/06/24 03:35:38;;;;;;;1.00;0.50;;;24.20;41.50;;;;;;5020057;28;20033;-49
2021/06/24 03:38:04;;;;;;;0.88;0.50;;;24.20;41.50;;;;;;5022769;28;20029;-49
2021/06/24 03:40:31;;;;;;;1.02;0.45;;;24.20;41.50;;;;;;5024312;28;20026;-53
2021/06/24 03:43:02;;;;;;;0.60;0.50;;;24.20;41.50;;;;;;5020712;28;20036;-53
2021/06/24 03:45:28;;;;;;;0.68;0.50;;;24.20;41.50;;;;;;5024480;28;21471;-51
2021/06/24 03:47:54;;;;;;;0.90;0.60;;;24.20;41.50;;;;;;5024973;28;20041;-50
2021/06/24 03:50:21;;;;;;;0.70;0.63;;;24.20;41.50;;;;;;5019643;28;20353;-52
2021/06/24 03:52:47;;;;;;;0.77;0.60;;;24.20;41.50;;;;;;5038967;28;20025;-53
2021/06/24 03:55:19;;;;;;;1.38;0.60;;;24.20;41.60;;;;;;5022224;28;20080;-52
2021/06/24 03:57:46;;;;;;;1.35;0.70;;;24.20;41.60;;;;;;5023199;28;20456;-52
2021/06/24 04:00:22;;;;;;;1.55;0.65;;;24.20;41.60;;;;;;5017946;28;20033;-52
2021/06/24 04:02:48;;;;;;;1.20;0.70;;;24.20;41.60;;;;;;5023701;28;20116;-50
2021/06/24 04:05:32;;;;;;;0.73;0.47;;;24.20;41.60;;;;;;5022679;28;20025;-48
2021/06/24 04:08:03;;;;;;;0.60;0.50;;;24.20;41.60;;;;;;5022887;28;20065;-50
2021/06/24 04:10:31;;;;;;;0.73;0.40;;;24.20;41.60;;;;;;5021667;28;20065;-53
2021/06/24 04:12:57;;;;;;;1.45;0.70;;;24.20;41.60;;;;;;5023401;28;20152;-47
2021/06/24 04:15:31;;;;;;;1.13;0.63;;;24.20;41.60;;;;;;5017751;28;20025;-49
2021/06/24 04:17:59;;;;;;;0.75;0.45;;;24.20;41.60;;;;;;5020983;28;20034;-52
2021/06/24 04:20:25;;;;;;;1.08;0.50;;;24.20;41.60;;;;;;5023562;28;20346;-48
2021/06/24 04:22:51;;;;;;;1.17;0.52;;;24.20;41.60;;;;;;5020651;28;20025;-49
2021/06/24 04:25:21;;;;;;;0.60;0.50;;;24.20;41.60;;;;;;5006755;28;20037;-49
2021/06/24 04:27:49;;;;;;;1.05;0.60;;;24.10;41.60;;;;;;5031380;28;20099;-50
2021/06/24 04:30:18;;;;;;;0.50;0.40;;;24.20;41.60;;;;;;5022543;28;20029;-55
2021/06/24 04:32:47;;;;;;;1.23;0.50;;;24.20;41.60;;;;;;5021715;28;20026;-50
2021/06/24 04:35:17;;;;;;;0.70;0.47;;;24.10;41.60;;;;;;5037364;28;20025;-52
2021/06/24 04:37:43;;;;;;;0.52;0.45;;;24.10;41.60;;;;;;5020846;28;20044;-50
2021/06/24 04:40:11;;;;;;;1.23;0.50;;;24.20;41.60;;;;;;5024514;28;20029;-50
2021/06/24 04:42:46;;;;;;;0.35;0.35;;;24.10;41.60;;;;;;5019285;28;20361;-52
2021/06/24 04:45:15;;;;;;;0.50;0.40;;;24.10;41.60;;;;;;5030960;28;20032;-48
2021/06/24 04:48:00;;;;;;;1.75;0.60;;;24.10;41.60;;;;;;5018043;28;20048;-47
2021/06/24 04:50:28;;;;;;;1.20;0.77;;;24.10;41.60;;;;;;5019223;28;20038;-47
2021/06/24 04:52:54;;;;;;;0.57;0.52;;;24.10;41.60;;;;;;5027673;28;20032;-52
2021/06/24 04:55:38;;;;;;;0.68;0.60;;;24.10;41.60;;;;;;5015283;28;20030;-51
2021/06/24 04:58:07;;;;;;;0.98;0.40;;;24.10;41.60;;;;;;5032661;28;20214;-50
2021/06/24 05:00:51;;;;;;;1.45;0.50;;;24.10;41.60;;;;;;5033254;28;20037;-50
2021/06/24 05:03:36;;;;;;;1.45;0.43;;;24.10;41.60;;;;;;5033217;28;20051;-49
2021/06/24 05:06:04;;;;;;;1.35;0.70;;;24.10;41.70;;;;;;5032318;28;20037;-46
2021/06/24 05:08:32;;;;;;;1.02;0.40;;;24.10;41.70;;;;;;5014280;28;20046;-52
2021/06/24 05:10:58;;;;;;;0.60;0.50;;;24.10;41.70;;;;;;5028255;28;20069;-49
2021/06/24 05:13:24;;;;;;;0.40;0.40;;;24.10;41.70;;;;;;5033348;28;20065;-53
2021/06/24 05:15:50;;;;;;;1.17;0.63;;;24.10;41.70;;;;;;5025005;28;20120;-47
2021/06/24 05:18:16;;;;;;;1.10;0.60;;;24.10;41.70;;;;;;5032151;28;20025;-48
2021/06/24 05:20:44;;;;;;;0.73;0.50;;;24.10;41.70;;;;;;5021113;28;20506;-50
2021/06/24 05:23:12;;;;;;;0.77;0.40;;;24.10;41.70;;;;;;5021439;28;20038;-53
2021/06/24 05:25:39;;;;;;;0.93;0.57;;;24.10;41.80;;;;;;5013462;28;20046;-49
2021/06/24 05:28:06;;;;;;;1.55;0.65;;;24.10;41.80;;;;;;5026109;28;20369;-51
2021/06/24 05:30:32;;;;;;;1.20;0.50;;;24.10;41.80;;;;;;5034150;28;20075;-49
2021/06/24 05:32:58;;;;;;;0.57;0.50;;;24.10;41.80;;;;;;5026826;28;20033;-51
2021/06/24 05:35:23;;;;;;;1.27;0.60;;;24.10;41.80;;;;;;5033923;28;20041;-54
2021/06/24 05:37:49;;;;;;;1.27;0.65;;;24.10;41.80;;;;;;5021960;28;20051;-50
2021/06/24 05:40:15;;;;;;;1.33;0.68;;;24.10;41.80;;;;;;5014263;28;20080;-55
2021/06/24 05:42:41;;;;;;;1.67;0.60;;;24.10;41.80;;;;;;5016440;28;20022;-52
2021/06/24 05:45:08;;;;;;;0.60;0.47;;;24.10;41.80;;;;;;5027382;28;20044;-51
2021/06/24 05:47:34;;;;;;;0.93;0.45;;;24.10;41.80;;;;;;5017052;28;20458;-51
2021/06/24 05:50:00;;;;;;;0.73;0.30;;;24.10;41.80;;;;;;5013776;28;20095;-52
2021/06/24 05:52:26;;;;;;;0.70;0.60;;;24.10;41.80;;;;;;5000923;28;20040;-56
2021/06/24 05:54:51;;;;;;;0.80;0.55;;;24.10;41.80;;;;;;5013304;28;20034;-52
2021/06/24 05:57:17;;;;;;;0.90;0.60;;;24.10;41.80;;;;;;5014078;28;20136;-47
2021/06/24 05:59:43;;;;;;;0.52;0.52;;;24.10;41.80;;;;;;5013973;28;20057;-55
2021/06/24 06:02:09;;;;;;;1.17;0.50;;;24.10;41.80;;;;;;5013330;28;20103;-53
2021/06/24 06:04:35;;;;;;;1.25;0.63;;;24.10;41.80;;;;;;5033236;28;20079;-51
2021/06/24 06:07:00;;;;;;;0.90;0.50;;;24.10;41.80;;;;;;5033085;28;20490;-48
2021/06/24 06:09:26;;;;;;;1.23;0.60;;;24.10;41.80;;;;;;5030456;28;20064;-51
2021/06/24 06:11:53;;;;;;;0.88;0.60;;;24.10;41.80;;;;;;5019655;28;20111;-53
2021/06/24 06:14:19;;;;;;;0.85;0.60;;;24.10;41.90;;;;;;5029097;28;20037;-53
2021/06/24 06:16:45;;;;;;;1.02;0.70;;;24.10;41.90;;;;;;5027358;28;20022;-50
2021/06/24 06:19:12;;;;;;;1.45;0.68;;;24.10;41.90;;;;;;5007589;28;20357;-49
2021/06/24 06:21:38;;;;;;;0.75;0.43;;;24.10;41.90;;;;;;5015164;28;20029;-51
2021/06/24 06:24:04;;;;;;;0.73;0.50;;;24.10;41.90;;;;;;5013969;28;20434;-49
2021/06/24 06:26:30;;;;;;;1.25;0.68;;;24.10;41.90;;;;;;5014583;28;20029;-53
2021/06/24 06:29:02;;;;;;;1.42;0.60;;;24.10;41.90;;;;;;5013843;28;20046;-49
2021/06/24 06:31:29;;;;;;;2.45;0.65;;;24.10;41.90;;;;;;5016275;28;20037;-53
2021/06/24 06:33:55;;;;;;;0.50;0.50;;;24.10;41.90;;;;;;5004099;28;20092;-51
2021/06/24 06:36:21;;;;;;;1.65;0.60;;;24.10;41.90;;;;;;5021645;28;20445;-53
2021/06/24 06:38:47;;;;;;;0.77;0.57;;;24.10;41.90;;;;;;5027858;28;20064;-49
2021/06/24 06:41:12;;;;;;;1.52;0.60;;;24.10;42.00;;;;;;5031846;28;20087;-51
2021/06/24 06:43:38;;;;;;;1.10;0.50;;;24.10;42.00;;;;;;5036948;28;20045;-51
2021/06/24 06:46:04;;;;;;;0.73;0.50;;;24.10;42.00;;;;;;5031585;28;20021;-48
2021/06/24 06:48:30;;;;;;;2.22;0.70;;;24.10;42.00;;;;;;5026069;28;20044;-51
2021/06/24 06:50:56;;;;;;;1.02;0.80;;;24.10;42.00;;;;;;5023457;28;20088;-52
2021/06/24 06:53:23;;;;;;;1.45;0.77;;;24.20;42.10;;;;;;5016858;28;20034;-50
2021/06/24 06:55:49;;;;;;;1.20;0.60;;;24.20;42.00;;;;;;5006152;28;20346;-53
2021/06/24 06:58:15;;;;;;;0.68;0.60;;;24.30;42.00;;;;;;5007451;28;20026;-48
2021/06/24 07:00:41;;;;;;;1.45;0.75;;;24.30;42.00;;;;;;5016022;28;20030;-49
2021/06/24 07:03:07;;;;;;;0.77;0.60;;;24.30;41.90;;;;;;5016301;28;20034;-51
2021/06/24 07:05:33;;;;;;;0.60;0.60;;;24.40;41.90;;;;;;5017408;28;20204;-48
2021/06/24 07:07:59;;;;;;;1.00;0.60;;;24.40;41.80;;;;;;5018093;28;20141;-48
2021/06/24 07:10:26;;;;;;;1.67;0.65;;;24.40;41.80;;;;;;5033951;28;20057;-52
2021/06/24 07:12:52;;;;;;;0.90;0.70;;;24.50;41.80;;;;;;5031952;28;20104;-54
2021/06/24 07:15:18;;;;;;;2.65;1.10;;;24.50;41.80;;;;;;5021267;28;20099;-50
2021/06/24 07:17:44;;;;;;;1.45;0.82;;;24.50;41.70;;;;;;5029753;28;20117;-56
2021/06/24 07:20:11;;;;;;;1.60;1.00;;;24.60;41.70;;;;;;5028986;28;20022;-51
2021/06/24 07:22:38;;;;;;;1.20;0.90;;;24.60;41.70;;;;;;5023232;28;20487;-51
2021/06/24 07:25:05;;;;;;;1.10;0.77;;;24.60;41.60;;;;;;5024114;28;20030;-50
2021/06/24 07:27:31;;;;;;;1.02;0.70;;;24.60;41.60;;;;;;5036434;28;20175;-49
2021/06/24 07:29:57;;;;;;;1.52;0.77;;;24.60;41.50;;;;;;5021338;28;20121;-51
2021/06/24 07:32:23;;;;;;;1.00;0.90;;;24.70;41.50;;;;;;5014746;28;20201;-50
2021/06/24 07:34:49;;;;;;;1.00;0.80;;;24.70;41.40;;;;;;5004431;28;20029;-53
2021/06/24 07:37:15;;;;;;;0.70;0.70;;;24.70;41.30;;;;;;5029203;28;20037;-55
2021/06/24 07:39:41;;;;;;;1.17;0.77;;;24.70;41.30;;;;;;5026498;28;20056;-49
2021/06/24 07:42:07;;;;;;;1.02;0.80;;;24.70;41.20;;;;;;5036006;28;20030;-52
2021/06/24 07:44:32;;;;;;;1.42;0.82;;;24.80;41.20;;;;;;5030157;28;20110;-51
2021/06/24 07:46:59;;;;;;;1.20;0.70;;;24.80;41.00;;;;;;5028268;28;20105;-55
2021/06/24 07:49:25;;;;;;;1.13;0.73;;;24.80;40.90;;;;;;5019049;28;20045;-53
2021/06/24 07:51:50;;;;;;;3.67;0.80;;;24.80;40.90;;;;;;5021242;28;20091;-54
2021/06/24 07:54:16;;;;;;;2.30;0.60;;;24.80;40.80;;;;;;5024269;28;20038;-52
2021/06/24 07:56:42;;;;;;;2.05;0.73;;;24.80;40.80;;;;;;5019984;28;20105;-51
2021/06/24 07:59:11;;;;;;;1.27;0.73;;;24.80;40.70;;;;;;5021427;28;20112;-55
2021/06/24 08:01:38;;;;;;;1.98;0.70;;;24.90;40.80;;;;;;5022850;28;20029;-53
2021/06/24 08:04:06;;;;;;;0.90;0.77;;;24.90;40.80;;;;;;5024469;28;20030;-53
2021/06/24 08:06:32;;;;;;;1.67;1.20;;;24.90;40.70;;;;;;5019599;28;20065;-53
2021/06/24 08:08:58;;;;;;;1.10;1.00;;;24.90;40.70;;;;;;5019387;28;20046;-54
2021/06/24 08:11:24;;;;;;;1.95;0.90;;;24.90;40.70;;;;;;5024502;28;20121;-53
2021/06/24 08:13:50;;;;;;;1.20;0.70;;;25.00;40.60;;;;;;5026635;28;20125;-52
2021/06/24 08:16:16;;;;;;;2.30;1.00;;;24.90;40.60;;;;;;5023701;28;20032;-49
2021/06/24 08:18:43;;;;;;;1.23;1.00;;;25.00;40.60;;;;;;5019672;28;20040;-52
2021/06/24 08:21:09;;;;;;;2.03;1.10;;;24.90;40.50;;;;;;5019838;28;20029;-51
2021/06/24 08:23:37;;;;;;;1.65;1.00;;;25.00;40.50;;;;;;5013648;28;20316;-51
2021/06/24 08:26:03;;;;;;;1.60;0.90;;;25.00;40.50;;;;;;4996668;28;20052;-49
2021/06/24 08:28:30;;;;;;;1.65;0.73;;;25.00;40.50;;;;;;5017128;28;20049;-50
2021/06/24 08:30:56;;;;;;;1.30;0.95;;;25.00;40.40;;;;;;5029620;28;20034;-52
2021/06/24 08:33:22;;;;;;;0.70;0.55;;;25.00;40.40;;;;;;5022757;28;20382;-54
2021/06/24 08:35:47;;;;;;;1.08;0.70;;;25.00;40.40;;;;;;5032067;28;20021;-54
2021/06/24 08:38:15;;;;;;;1.92;0.98;;;25.00;40.40;;;;;;5016072;28;20048;-54
2021/06/24 08:40:41;;;;;;;1.25;0.70;;;25.00;40.40;;;;;;5023216;28;20054;-56
2021/06/24 08:43:09;;;;;;;0.88;0.70;;;25.10;40.40;;;;;;5011469;28;20044;-55
2021/06/24 08:45:34;;;;;;;1.42;0.80;;;25.10;40.40;;;;;;5026814;28;20029;-52
2021/06/24 08:48:02;;;;;;;1.73;0.88;;;25.10;40.40;;;;;;5016556;28;20048;-53
2021/06/24 08:50:28;;;;;;;1.52;0.60;;;25.10;40.30;;;;;;5022415;28;20022;-52
2021/06/24 08:52:55;;;;;;;0.65;0.60;;;25.10;40.30;;;;;;5020323;28;20050;-57
2021/06/24 08:55:21;;;;;;;2.90;0.93;;;25.10;40.20;;;;;;5027581;28;20033;-55
2021/06/24 08:57:48;;;;;;;1.05;0.68;;;25.10;40.20;;;;;;5024862;28;20433;-54
2021/06/24 09:00:14;;;;;;;0.70;0.60;;;25.20;40.20;;;;;;5016281;28;20030;-55
2021/06/24 09:02:42;;;;;;;0.57;0.55;;;25.20;40.10;;;;;;5014314;28;20029;-52
2021/06/24 09:05:10;;;;;;;1.02;0.57;;;25.20;40.20;;;;;;5021696;28;20101;-53
2021/06/24 09:07:51;;;;;;;0.95;0.60;;;25.20;40.10;;;;;;5027279;28;20034;-49
2021/06/24 09:10:19;;;;;;;0.60;0.60;;;25.20;40.00;;;;;;5015192;28;20086;-49
2021/06/24 09:12:56;;;;;;;0.70;0.60;;;25.20;40.00;;;;;;5026153;28;20037;-47
2021/06/24 09:15:23;;;;;;;1.25;0.55;;;25.20;39.90;;;;;;5015706;28;20092;-49
2021/06/24 09:17:50;;;;;;;0.43;0.43;;;25.20;39.90;;;;;;5028754;28;20033;-50
2021/06/24 09:20:19;;;;;;;0.68;0.47;;;25.20;39.90;;;;;;5018271;28;20030;-49
2021/06/24 09:23:16;;;;;;;0.90;0.50;;;25.20;39.80;;;;;;5013744;28;20436;-46
2021/06/24 09:25:45;;;;;;;1.55;0.60;;;25.20;39.70;;;;;;5026143;28;20338;-51
2021/06/24 09:28:12;;;;;;;0.93;0.52;;;25.20;39.80;;;;;;5020056;28;20056;-48
2021/06/24 09:30:40;;;;;;;1.33;0.80;;;25.20;39.80;;;;;;5024387;28;20083;-50
2021/06/24 09:33:17;;;;;;;1.75;0.75;;;25.20;39.80;;;;;;5023488;28;20040;-53
2021/06/24 09:35:54;;;;;;;1.25;1.00;;;25.20;39.70;;;;;;5020727;28;20041;-58
2021/06/24 09:38:21;;;;;;;1.83;1.23;;;25.20;39.70;;;;;;5018151;28;20037;-54
2021/06/24 09:40:53;;;;;;;2.50;1.30;;;25.20;39.70;;;;;;5012666;28;20331;-56
2021/06/24 09:43:27;;;;;;;1.25;1.08;;;25.20;39.70;;;;;;5027027;28;20068;-54
2021/06/24 09:46:13;;;;;;;1.30;1.00;;;25.20;39.70;;;;;;5021511;28;20116;-56
2021/06/24 09:48:46;;;;;;;2.45;1.33;;;25.20;39.70;;;;;;5026229;28;20041;-54
2021/06/24 09:51:23;;;;;;;2.00;1.10;;;25.20;39.80;;;;;;5027113;28;20078;-47
2021/06/24 09:54:10;;;;;;;3.08;1.08;;;25.30;39.80;;;;;;5025610;28;20408;-56
2021/06/24 09:56:42;;;;;;;2.80;0.98;;;25.30;39.80;;;;;;5000758;28;20073;-51
2021/06/24 09:59:08;;;;;;;1.63;0.90;;;25.20;39.80;;;;;;4998059;28;20054;-54
2021/06/24 10:01:40;;;;;;;2.05;1.08;;;25.20;39.80;;;;;;5011997;28;20029;-53
2021/06/24 10:04:24;;;;;;;2.20;1.20;;;25.30;39.90;;;;;;5018594;28;20064;-52
2021/06/24 10:06:53;;;;;;;1.30;0.90;;;25.30;39.80;;;;;;5013839;28;20037;-55
2021/06/24 10:09:20;;;;;;;0.93;0.82;;;25.20;39.80;;;;;;5016645;28;20107;-55
2021/06/24 10:11:48;;;;;;;1.95;0.90;;;25.30;39.80;;;;;;5017816;28;20088;-54
2021/06/24 10:14:15;;;;;;;2.17;1.15;;;25.30;39.80;;;;;;5017854;28;20034;-53
2021/06/24 10:16:52;;;;;;;1.42;0.77;;;25.30;39.80;;;;;;5017646;28;20033;-53
2021/06/24 10:19:33;;;;;;;1.10;0.70;;;25.30;39.70;;;;;;5032139;28;20169;-51
2021/06/24 10:22:15;;;;;;;1.38;0.70;;;25.30;39.70;;;;;;5017506;28;20385;-54
2021/06/24 10:24:58;;;;;;;0.88;0.60;;;25.30;39.60;;;;;;5017672;28;20038;-54
2021/06/24 10:27:30;;;;;;;1.05;0.70;;;25.30;39.60;;;;;;5017509;28;20038;-57
2021/06/24 10:30:16;;;;;;;0.68;0.50;;;25.30;39.60;;;;;;5017581;28;20029;-52
2021/06/24 10:33:03;;;;;;;0.63;0.60;;;25.30;39.50;;;;;;5011052;28;20045;-52
2021/06/24 10:35:36;;;;;;;0.90;0.60;;;25.30;39.40;;;;;;5035867;28;20107;-56
2021/06/24 10:38:03;;;;;;;1.50;0.70;;;25.30;39.50;;;;;;5037006;28;20041;-55
2021/06/24 10:40:38;;;;;;;1.05;0.70;;;25.30;39.40;;;;;;5037274;28;20045;-55
2021/06/24 10:43:06;;;;;;;0.55;0.50;;;25.30;39.40;;;;;;5037131;28;20033;-55
2021/06/24 10:45:33;;;;;;;0.77;0.60;;;25.30;39.40;;;;;;5030654;28;20037;-54
2021/06/24 10:48:19;;;;;;;0.90;0.52;;;25.30;39.30;;;;;;5017714;28;20100;-56
2021/06/24 10:50:45;;;;;;;0.77;0.45;;;25.40;39.40;;;;;;5036225;28;20029;-55
2021/06/24 10:53:10;;;;;;;0.90;0.50;;;25.30;39.30;;;;;;5037138;28;20051;-51
2021/06/24 10:55:39;;;;;;;1.13;0.60;;;25.40;39.30;;;;;;5036808;28;20029;-53
2021/06/24 10:58:17;;;;;;;0.50;0.50;;;25.40;39.30;;;;;;5036700;28;20121;-51
2021/06/24 11:00:45;;;;;;;0.98;0.60;;;25.40;39.30;;;;;;5036608;28;20060;-54
2021/06/24 11:03:15;;;;;;;1.08;0.50;;;25.30;39.20;;;;;;5034506;28;20034;-54
2021/06/24 11:05:46;;;;;;;0.85;0.50;;;25.40;39.30;;;;;;5029284;28;20022;-51
2021/06/24 11:08:15;;;;;;;0.85;0.60;;;25.40;39.30;;;;;;5016569;28;20042;-53
2021/06/24 11:11:02;;;;;;;1.13;0.63;;;25.30;39.20;;;;;;5016195;28;20057;-55
2021/06/24 11:13:40;;;;;;;0.85;0.55;;;25.40;39.30;;;;;;5016603;28;20030;-53
2021/06/24 11:16:15;;;;;;;1.20;0.65;;;25.40;39.30;;;;;;5016836;28;20038;-52
2021/06/24 11:18:44;;;;;;;0.73;0.40;;;25.40;39.40;;;;;;5016346;28;20092;-56
2021/06/24 11:21:12;;;;;;;0.50;0.50;;;25.40;39.30;;;;;;5008818;28;20430;-54
2021/06/24 11:23:41;;;;;;;1.05;0.65;;;25.40;39.30;;;;;;5028853;28;20099;-52
2021/06/24 11:26:09;;;;;;;0.63;0.60;;;25.40;39.30;;;;;;5035316;28;20528;-54
2021/06/24 11:28:48;;;;;;;0.63;0.60;;;25.40;39.30;;;;;;5036055;28;20041;-56
2021/06/24 11:34:33;;;;;;;0.70;0.60;;;25.40;39.30;;;;;;5036294;28;20124;-55
2021/06/24 11:37:06;;;;;;;1.00;0.50;;;25.40;39.40;;;;;;5034086;28;20330;-53
2021/06/24 11:39:40;;;;;;;0.57;0.47;;;25.40;39.40;;;;;;5016057;28;20022;-54
2021/06/24 11:42:08;;;;;;;0.93;0.68;;;25.40;39.40;;;;;;5016170;28;20030;-53
2021/06/24 11:44:49;;;;;;;0.75;0.60;;;25.30;39.30;;;;;;5021182;28;20022;-57
2021/06/24 11:47:26;;;;;;;0.85;0.50;;;25.40;39.40;;;;;;5005039;28;20068;-51
2021/06/24 12:01:07;;;;;;;;;;;25.40;39.50;;;;;;5033504;28;20025;-54
2021/06/24 12:03:32;;;;;;;0.70;0.60;;;25.30;39.50;;;;;;5034829;28;19920;-55
2021/06/24 12:05:58;;;;;;;1.67;0.70;;;25.30;39.60;;;;;;5034525;28;20034;-50
2021/06/24 12:08:27;;;;;;;0.90;0.60;;;25.30;39.60;;;;;;5035327;28;20076;-54
2021/06/24 12:11:07;;;;;;;0.73;0.60;;;25.30;39.60;;;;;;5034991;28;20095;-51
2021/06/24 12:13:36;;;;;;;2.03;0.90;;;25.30;39.60;;;;;;5035065;28;20064;-53
2021/06/24 12:16:03;;;;;;;1.17;0.80;;;25.30;39.70;;;;;;5033566;28;20029;-54
2021/06/24 12:18:40;;;;;;;1.38;0.98;;;25.30;39.70;;;;;;5021296;28;20104;-53
2021/06/24 12:21:12;;;;;;;1.50;0.70;;;25.40;39.80;;;;;;5034502;28;20048;-52
2021/06/24 12:23:44;;;;;;;1.10;0.70;;;25.40;39.80;;;;;;5034781;28;20030;-54
2021/06/24 12:26:11;;;;;;;1.13;0.80;;;25.30;39.70;;;;;;5035100;28;20052;-48
2021/06/24 12:28:38;;;;;;;2.85;0.73;;;25.30;39.80;;;;;;5034969;28;20050;-50
2021/06/24 12:31:07;;;;;;;0.90;0.73;;;25.30;39.80;;;;;;5034705;28;20080;-50
2021/06/24 12:33:33;;;;;;;1.02;0.70;;;25.40;39.90;;;;;;5034332;28;20029;-53
2021/06/24 12:35:59;;;;;;;0.77;0.60;;;25.40;39.90;;;;;;5031979;28;20469;-51
2021/06/24 12:38:27;;;;;;;0.93;0.70;;;25.30;39.80;;;;;;5034448;28;20471;-53
2021/06/24 12:40:54;;;;;;;0.60;0.52;;;25.40;39.90;;;;;;5016296;28;20041;-51
2021/06/24 12:43:23;;;;;;;0.63;0.52;;;25.40;40.00;;;;;;5015473;28;20038;-53
2021/06/24 12:45:52;;;;;;;1.35;0.70;;;25.40;40.00;;;;;;5015108;28;20330;-56
2021/06/24 12:48:45;;;;;;;0.73;0.60;;;25.40;40.00;;;;;;5015204;28;20412;-54
2021/06/24 12:51:17;;;;;;;0.90;0.75;;;25.40;40.00;;;;;;5008068;28;20347;-53
2021/06/24 12:53:46;;;;;;;1.25;0.63;;;25.40;40.10;;;;;;4995097;28;20081;-54
2021/06/24 12:56:23;;;;;;;1.00;0.60;;;25.40;40.10;;;;;;5006167;28;20064;-56
2021/06/24 12:58:50;;;;;;;0.70;0.70;;;25.40;40.20;;;;;;5014765;28;20357;-53
2021/06/24 13:01:18;;;;;;;0.93;0.75;;;25.40;40.20;;;;;;5014538;28;20022;-51
2021/06/24 13:03:50;;;;;;;0.85;0.75;;;25.40;40.20;;;;;;5015032;28;20212;-55
2021/06/24 13:06:26;;;;;;;0.77;0.60;;;25.40;40.20;;;;;;5016417;28;20095;-51
2021/06/24 13:09:05;;;;;;;1.20;0.80;;;25.40;40.20;;;;;;5014450;28;20141;-51
2021/06/24 13:11:34;;;;;;;0.95;0.73;;;25.40;40.30;;;;;;5016531;28;20064;-51
2021/06/24 13:14:13;;;;;;;1.23;0.63;;;25.40;40.30;;;;;;5016653;28;20477;-52